createdAt,value
2023-05-15T00:00:55.419Z,6.25
2023-05-15T00:03:28.827Z,6.57
2023-05-15T00:05:59.260Z,6.63
2023-05-15T00:08:36.724Z,5.97
2023-05-15T00:11:05.832Z,6.07
2023-05-15T00:13:40.557Z,5.90
2023-05-15T00:16:14.032Z,5.38
2023-05-15T00:18:41.728Z,3.97
2023-05-15T00:21:10.410Z,5.75
2023-05-15T00:23:42.019Z,6.53
2023-05-15T00:26:12.188Z,6.00
2023-05-15T00:28:46.448Z,6.47
2023-05-15T00:31:19.462Z,5.97
2023-05-15T00:33:51.095Z,6.07
2023-05-15T00:36:37.350Z,6.15
2023-05-15T00:39:06.167Z,5.40
2023-05-15T00:41:47.265Z,5.95
2023-05-15T00:44:18.453Z,5.80
2023-05-15T00:46:52.142Z,4.10
2023-05-15T00:49:27.555Z,5.65
2023-05-15T00:52:06.303Z,5.75
2023-05-15T00:54:54.132Z,5.00
2023-05-15T00:57:29.202Z,6.03
2023-05-15T01:00:05.016Z,5.28
2023-05-15T01:02:40.156Z,6.28
2023-05-15T01:05:10.632Z,5.15
2023-05-15T01:08:19.431Z,6.03
2023-05-15T01:10:54.809Z,5.43
2023-05-15T01:13:28.419Z,5.63
2023-05-15T01:16:06.009Z,5.38
2023-05-15T01:18:38.616Z,5.85
2023-05-15T01:21:29.018Z,6.68
2023-05-15T01:24:46.072Z,5.15
2023-05-15T01:27:22.385Z,4.88
2023-05-15T01:30:34.518Z,5.38
2023-05-15T01:33:19.103Z,5.22
2023-05-15T01:36:20.787Z,5.95
2023-05-15T01:38:55.938Z,5.88
2023-05-15T01:41:45.048Z,5.50
2023-05-15T01:44:36.287Z,5.90
2023-05-15T01:47:20.226Z,5.65
2023-05-15T01:49:54.995Z,5.18
2023-05-15T01:52:33.901Z,6.07
2023-05-15T01:55:05.241Z,5.50
2023-05-15T01:57:38.490Z,5.38
2023-05-15T02:00:15.119Z,5.70
2023-05-15T02:02:48.496Z,5.38
2023-05-15T02:05:22.157Z,5.07
2023-05-15T02:08:01.972Z,5.90
2023-05-15T02:10:38.671Z,4.97
2023-05-15T02:13:11.674Z,5.45
2023-05-15T02:15:42.045Z,4.90
2023-05-15T02:18:17.260Z,5.50
2023-05-15T02:20:48.359Z,5.20
2023-05-15T02:23:20.947Z,4.82
2023-05-15T02:26:14.544Z,6.07
2023-05-15T02:29:21.133Z,5.70
2023-05-15T02:35:31.104Z,5.22
2023-05-15T02:38:05.042Z,5.32
2023-05-15T02:40:34.405Z,5.25
2023-05-15T02:43:02.345Z,5.50
2023-05-15T02:45:31.250Z,5.07
2023-05-15T02:47:59.615Z,5.05
2023-05-15T02:50:27.202Z,4.20
2023-05-15T02:53:09.806Z,4.53
2023-05-15T02:55:38.525Z,4.65
2023-05-15T02:58:06.324Z,4.28
2023-05-15T03:00:35.576Z,5.00
2023-05-15T03:03:02.913Z,5.38
2023-05-15T03:05:30.382Z,4.63
2023-05-15T03:07:58.784Z,4.15
2023-05-15T03:10:26.151Z,4.85
2023-05-15T03:12:55.162Z,5.28
2023-05-15T03:15:22.767Z,4.95
2023-05-15T03:17:52.159Z,4.93
2023-05-15T03:20:19.724Z,6.97
2023-05-15T03:22:48.095Z,5.30
2023-05-15T03:25:15.740Z,5.15
2023-05-15T03:27:43.651Z,5.35
2023-05-15T03:30:11.440Z,5.30
2023-05-15T03:32:38.856Z,5.32
2023-05-15T03:35:06.784Z,5.40
2023-05-15T03:37:34.218Z,5.15
2023-05-15T03:40:01.843Z,5.78
2023-05-15T03:42:29.568Z,5.07
2023-05-15T03:44:56.876Z,5.15
2023-05-15T03:47:24.348Z,5.30
2023-05-15T03:49:53.834Z,5.38
2023-05-15T03:52:21.197Z,5.57
2023-05-15T03:54:48.604Z,4.93
2023-05-15T03:57:15.923Z,4.95
2023-05-15T03:59:43.338Z,5.30
2023-05-15T04:02:10.891Z,5.13
2023-05-15T04:04:38.839Z,5.40
2023-05-15T04:07:10.135Z,4.90
2023-05-15T04:09:37.444Z,4.85
2023-05-15T04:12:05.051Z,5.00
2023-05-15T04:14:32.380Z,5.57
2023-05-15T04:16:59.607Z,5.00
2023-05-15T04:19:27.010Z,5.15
2023-05-15T04:21:54.287Z,4.80
2023-05-15T04:24:21.595Z,5.40
2023-05-15T04:26:49.036Z,5.00
2023-05-15T04:29:16.381Z,5.03
2023-05-15T04:31:43.628Z,5.47
2023-05-15T04:34:11.094Z,5.97
2023-05-15T04:36:39.487Z,5.25
2023-05-15T04:39:08.487Z,5.57
2023-05-15T04:41:35.780Z,5.88
2023-05-15T04:44:03.374Z,4.78
2023-05-15T04:46:30.809Z,5.78
2023-05-15T04:48:58.052Z,5.25
2023-05-15T04:51:25.262Z,5.40
2023-05-15T04:53:52.619Z,5.70
2023-05-15T04:56:19.765Z,6.97
2023-05-15T04:58:46.983Z,6.50
2023-05-15T05:01:14.326Z,6.53
2023-05-15T05:03:41.673Z,6.43
2023-05-15T05:06:08.969Z,6.07
2023-05-15T05:08:36.640Z,5.70
2023-05-15T05:11:03.975Z,6.60
2023-05-15T05:13:31.749Z,6.45
2023-05-15T05:15:59.242Z,6.60
2023-05-15T05:18:26.783Z,6.80
2023-05-15T05:21:03.613Z,7.28
2023-05-15T05:23:31.474Z,6.30
2023-05-15T05:26:00.479Z,7.35
2023-05-15T05:28:27.794Z,7.65
2023-05-15T05:30:55.009Z,7.55
2023-05-15T05:33:22.325Z,7.43
2023-05-15T05:35:49.542Z,8.73
2023-05-15T05:38:16.777Z,8.63
2023-05-15T05:40:44.380Z,7.07
2023-05-15T05:43:11.845Z,8.13
2023-05-15T05:45:39.239Z,8.77
2023-05-15T05:48:06.680Z,8.80
2023-05-15T05:50:34.013Z,9.00
2023-05-15T05:53:01.380Z,8.50
2023-05-15T05:55:28.846Z,9.32
2023-05-15T05:57:56.260Z,8.30
2023-05-15T06:00:25.072Z,9.70
2023-05-15T06:02:58.450Z,9.57
2023-05-15T06:05:26.814Z,8.00
2023-05-15T06:07:55.153Z,8.45
2023-05-15T06:10:23.040Z,8.18
2023-05-15T06:12:50.433Z,6.97
2023-05-15T06:15:17.748Z,7.70
2023-05-15T06:17:45.175Z,6.38
2023-05-15T06:20:12.608Z,5.80
2023-05-15T06:22:40.724Z,6.35
2023-05-15T06:25:13.722Z,5.38
2023-05-15T06:27:41.605Z,6.18
2023-05-15T06:30:09.907Z,5.30
2023-05-15T06:32:37.533Z,5.78
2023-05-15T06:35:05.101Z,6.43
2023-05-15T06:37:33.994Z,5.85
2023-05-15T06:40:01.337Z,6.10
2023-05-15T06:42:33.263Z,6.53
2023-05-15T06:45:00.812Z,6.15
2023-05-15T06:47:29.618Z,5.97
2023-05-15T06:49:56.953Z,6.80
2023-05-15T06:52:24.491Z,5.68
2023-05-15T06:54:52.273Z,5.63
2023-05-15T06:57:19.933Z,6.18
2023-05-15T06:59:47.147Z,5.72
2023-05-15T07:02:14.750Z,5.80
2023-05-15T07:04:42.133Z,6.38
2023-05-15T07:07:09.528Z,5.60
2023-05-15T07:09:36.821Z,5.72
2023-05-15T07:12:04.245Z,6.18
2023-05-15T07:14:31.542Z,5.20
2023-05-15T07:16:58.871Z,5.38
2023-05-15T07:19:26.168Z,5.07
2023-05-15T07:21:53.414Z,5.13
2023-05-15T07:24:21.029Z,6.18
2023-05-15T07:29:25.162Z,5.13
2023-05-15T07:31:52.581Z,6.13
2023-05-15T07:34:19.909Z,5.55
2023-05-15T07:36:47.355Z,8.85
2023-05-15T07:39:14.647Z,13.02
2023-05-15T07:41:41.954Z,11.70
2023-05-15T07:44:09.320Z,7.65
2023-05-15T07:46:36.841Z,6.35
2023-05-15T07:49:04.100Z,6.68
2023-05-15T07:51:31.310Z,6.50
2023-05-15T07:53:58.579Z,5.55
2023-05-15T07:56:25.943Z,5.05
2023-05-15T07:58:54.312Z,5.90
2023-05-15T08:01:21.651Z,7.28
2023-05-15T08:03:48.888Z,6.88
2023-05-15T08:06:16.554Z,6.00
2023-05-15T08:08:43.811Z,5.05
2023-05-15T08:11:11.029Z,5.18
2023-05-15T08:13:38.757Z,5.43
2023-05-15T08:16:06.508Z,4.85
2023-05-15T08:18:33.930Z,5.25
2023-05-15T08:21:02.466Z,5.45
2023-05-15T08:23:30.818Z,5.97
2023-05-15T08:25:58.069Z,5.03
2023-05-15T08:28:25.581Z,4.90
2023-05-15T08:30:53.000Z,5.60
2023-05-15T08:33:20.342Z,5.72
2023-05-15T08:35:47.621Z,5.35
2023-05-15T08:38:14.837Z,5.07
2023-05-15T08:40:46.947Z,5.50
2023-05-15T08:43:18.332Z,5.47
2023-05-15T08:45:45.946Z,5.50
2023-05-15T08:48:22.810Z,6.20
2023-05-15T08:50:51.284Z,5.53
2023-05-15T08:53:18.705Z,5.30
2023-05-15T08:55:46.218Z,5.93
2023-05-15T08:58:14.159Z,6.03
2023-05-15T09:00:41.621Z,7.00
2023-05-15T09:03:15.858Z,8.45
2023-05-15T09:05:43.839Z,5.40
2023-05-15T09:08:11.493Z,6.13
2023-05-15T09:10:39.615Z,6.47
2023-05-15T09:13:09.273Z,5.82
2023-05-15T09:15:37.941Z,6.13
2023-05-15T09:18:08.089Z,6.22
2023-05-15T09:20:37.330Z,6.03
2023-05-15T09:23:06.425Z,6.13
2023-05-15T09:25:42.654Z,7.70
2023-05-15T09:28:11.564Z,7.28
2023-05-15T09:30:41.833Z,6.45
2023-05-15T09:33:09.990Z,5.85
2023-05-15T09:35:39.094Z,6.97
2023-05-15T09:38:12.828Z,6.80
2023-05-15T09:40:41.142Z,6.10
2023-05-15T09:43:11.913Z,6.47
2023-05-15T09:45:39.325Z,6.47
2023-05-15T09:48:08.204Z,6.53
2023-05-15T09:50:38.674Z,6.03
2023-05-15T09:53:06.507Z,5.28
2023-05-15T09:55:37.240Z,6.05
2023-05-15T09:58:10.846Z,4.90
2023-05-15T10:00:47.801Z,6.45
2023-05-15T10:03:19.750Z,6.32
2023-05-15T10:05:47.430Z,5.40
2023-05-15T10:08:15.989Z,5.57
2023-05-15T10:10:43.924Z,5.63
2023-05-15T10:13:11.952Z,5.53
2023-05-15T10:15:40.159Z,5.32
2023-05-15T10:18:08.621Z,5.50
2023-05-15T10:20:37.187Z,5.10
2023-05-15T10:23:06.433Z,5.20
2023-05-15T10:25:38.944Z,4.97
2023-05-15T10:28:10.189Z,5.45
2023-05-15T10:30:38.692Z,5.70
2023-05-15T10:33:07.701Z,6.53
2023-05-15T10:35:36.370Z,5.97
2023-05-15T10:38:07.646Z,5.00
2023-05-15T10:40:37.881Z,5.38
2023-05-15T10:43:06.765Z,4.70
2023-05-15T10:45:35.496Z,5.07
2023-05-15T10:48:05.598Z,5.43
2023-05-15T10:50:33.298Z,5.63
2023-05-15T10:53:01.016Z,4.93
2023-05-15T10:55:31.324Z,5.88
2023-05-15T10:57:58.616Z,4.80
2023-05-15T11:00:27.841Z,5.13
2023-05-15T11:02:57.350Z,6.30
2023-05-15T11:05:25.960Z,6.07
2023-05-15T11:08:15.094Z,5.05
2023-05-15T11:10:42.524Z,5.68
2023-05-15T11:13:09.778Z,5.50
2023-05-15T11:15:47.760Z,5.47
2023-05-15T11:18:16.164Z,5.45
2023-05-15T11:20:53.126Z,5.40
2023-05-15T11:23:25.576Z,5.28
2023-05-15T11:26:01.590Z,5.53
2023-05-15T11:28:30.764Z,5.40
2023-05-15T11:31:07.951Z,5.28
2023-05-15T11:33:38.013Z,5.57
2023-05-15T11:36:06.956Z,5.53
2023-05-15T11:38:39.741Z,5.15
2023-05-15T11:41:22.159Z,5.00
2023-05-15T11:43:50.460Z,5.20
2023-05-15T11:46:17.803Z,5.57
2023-05-15T11:48:50.059Z,4.97
2023-05-15T11:51:17.895Z,5.13
2023-05-15T11:53:45.621Z,4.30
2023-05-15T11:56:20.148Z,4.63
2023-05-15T12:03:50.463Z,4.85
2023-05-15T12:06:19.293Z,5.85
2023-05-15T12:08:52.526Z,4.70
2023-05-15T12:11:23.976Z,5.13
2023-05-15T12:13:54.261Z,5.38
2023-05-15T12:16:28.909Z,4.78
2023-05-15T12:19:00.381Z,4.43
2023-05-15T12:21:27.953Z,5.05
2023-05-15T12:26:27.810Z,4.68
2023-05-15T12:28:55.746Z,5.00
2023-05-15T12:31:23.408Z,4.50
2023-05-15T12:33:50.948Z,4.40
2023-05-15T12:36:21.248Z,4.00
2023-05-15T12:38:49.323Z,4.28
2023-05-15T12:41:17.042Z,4.18
2023-05-15T12:43:44.256Z,4.47
2023-05-15T12:46:14.084Z,4.75
2023-05-15T12:48:42.014Z,4.15
2023-05-15T12:51:09.606Z,6.65
2023-05-15T12:53:40.068Z,4.68
2023-05-15T12:56:09.337Z,5.45
2023-05-15T12:58:38.338Z,4.60
2023-05-15T13:01:06.418Z,4.82
2023-05-15T13:03:34.903Z,4.97
2023-05-15T13:06:07.427Z,5.07
2023-05-15T13:08:42.756Z,4.10
2023-05-15T13:11:14.243Z,6.00
2023-05-15T13:13:47.090Z,5.13
2023-05-15T13:16:29.837Z,4.50
2023-05-15T13:19:00.728Z,4.95
2023-05-15T13:21:28.569Z,5.13
2023-05-15T13:23:55.792Z,4.68
2023-05-15T13:26:22.983Z,4.63
2023-05-15T13:28:50.241Z,4.75
2023-05-15T13:31:17.777Z,4.22
2023-05-15T13:33:44.974Z,4.65
2023-05-15T13:36:12.537Z,5.65
2023-05-15T13:38:40.474Z,4.65
2023-05-15T13:41:07.769Z,5.10
2023-05-15T13:43:34.978Z,5.28
2023-05-15T13:46:02.154Z,5.00
2023-05-15T13:48:29.542Z,5.35
2023-05-15T13:50:56.778Z,5.90
2023-05-15T13:53:23.997Z,8.55
2023-05-15T13:55:51.287Z,6.75
2023-05-15T13:58:18.810Z,4.85
2023-05-15T14:00:48.495Z,4.65
2023-05-15T14:03:15.854Z,4.65
2023-05-15T14:05:43.281Z,4.85
2023-05-15T14:08:11.058Z,5.57
2023-05-15T14:10:38.281Z,4.93
2023-05-15T14:13:05.816Z,4.45
2023-05-15T14:15:33.040Z,4.80
2023-05-15T14:18:00.338Z,5.07
2023-05-15T14:20:27.917Z,4.53
2023-05-15T14:22:56.233Z,5.43
2023-05-15T14:25:24.430Z,5.75
2023-05-15T14:27:51.876Z,5.57
2023-05-15T14:30:19.143Z,5.43
2023-05-15T14:32:46.449Z,5.10
2023-05-15T14:35:13.855Z,5.38
2023-05-15T14:37:41.275Z,5.10
2023-05-15T14:40:09.411Z,4.63
2023-05-15T14:42:36.658Z,5.55
2023-05-15T14:45:05.007Z,5.32
2023-05-15T14:47:32.483Z,5.30
2023-05-15T14:49:59.739Z,4.53
2023-05-15T14:52:27.062Z,5.03
2023-05-15T14:55:08.066Z,5.18
2023-05-15T14:57:37.493Z,5.32
2023-05-15T15:00:06.920Z,5.10
2023-05-15T15:02:34.780Z,5.15
2023-05-15T15:05:02.207Z,5.65
2023-05-15T15:07:31.626Z,5.10
2023-05-15T15:09:58.948Z,5.75
2023-05-15T15:12:26.870Z,5.00
2023-05-15T15:14:54.175Z,5.40
2023-05-15T15:17:21.466Z,5.63
2023-05-15T15:19:48.617Z,5.15
2023-05-15T15:22:15.959Z,5.13
2023-05-15T15:24:43.190Z,6.18
2023-05-15T15:27:10.427Z,5.68
2023-05-15T15:29:37.700Z,6.20
2023-05-15T15:32:05.146Z,6.18
2023-05-15T15:34:32.500Z,6.22
2023-05-15T15:37:02.169Z,5.30
2023-05-15T15:39:29.600Z,7.05
2023-05-15T15:41:56.809Z,6.70
2023-05-15T15:44:24.161Z,7.20
2023-05-15T15:46:51.337Z,7.50
2023-05-15T15:49:18.687Z,8.23
2023-05-15T15:51:45.924Z,7.60
2023-05-15T15:54:13.074Z,7.75
2023-05-15T15:56:41.437Z,9.90
2023-05-15T15:59:09.106Z,8.15
2023-05-15T16:01:37.071Z,7.60
2023-05-15T16:04:04.430Z,7.80
2023-05-15T16:06:33.259Z,8.98
2023-05-15T16:09:00.857Z,9.95
2023-05-15T16:11:29.312Z,8.13
2023-05-15T16:13:56.690Z,8.85
2023-05-15T16:16:24.425Z,8.15
2023-05-15T16:18:51.723Z,7.57
2023-05-15T16:21:19.020Z,8.43
2023-05-15T16:23:46.178Z,9.18
2023-05-15T16:26:13.373Z,9.23
2023-05-15T16:28:40.649Z,8.73
2023-05-15T16:31:08.089Z,8.98
2023-05-15T16:33:36.019Z,9.27
2023-05-15T16:36:05.329Z,9.75
2023-05-15T16:38:32.673Z,10.77
2023-05-15T16:40:59.934Z,9.90
2023-05-15T16:43:27.317Z,9.60
2023-05-15T16:45:55.387Z,10.98
2023-05-15T16:48:22.976Z,10.98
2023-05-15T16:50:50.501Z,11.32
2023-05-15T16:53:17.919Z,10.88
2023-05-15T16:55:47.052Z,11.30
2023-05-15T16:58:14.371Z,12.25
2023-05-15T17:00:42.091Z,12.32
2023-05-15T17:03:09.789Z,12.38
2023-05-15T17:05:37.287Z,12.00
2023-05-15T17:08:05.681Z,11.98
2023-05-15T17:10:32.894Z,11.48
2023-05-15T17:13:00.065Z,13.80
2023-05-15T17:15:27.590Z,10.25
2023-05-15T17:17:55.152Z,9.25
2023-05-15T17:20:22.524Z,10.05
2023-05-15T17:22:49.989Z,10.43
2023-05-15T17:25:17.305Z,10.40
2023-05-15T17:27:47.937Z,9.82
2023-05-15T17:30:15.619Z,9.10
2023-05-15T17:32:42.974Z,8.75
2023-05-15T17:35:10.550Z,9.77
2023-05-15T17:37:38.187Z,12.13
2023-05-15T17:40:06.308Z,10.05
2023-05-15T17:42:33.563Z,9.77
2023-05-15T17:45:00.838Z,10.82
2023-05-15T17:47:28.096Z,10.13
2023-05-15T17:49:55.595Z,8.90
2023-05-15T17:52:22.870Z,13.52
2023-05-15T17:54:50.211Z,18.52
2023-05-15T17:57:17.790Z,13.15
2023-05-15T17:59:45.195Z,9.65
2023-05-15T18:02:12.402Z,9.80
2023-05-15T18:04:39.714Z,10.25
2023-05-15T18:07:07.054Z,9.88
2023-05-15T18:09:36.565Z,9.23
2023-05-15T18:12:04.346Z,9.48
2023-05-15T18:14:31.776Z,8.43
2023-05-15T18:16:59.201Z,7.97
2023-05-15T18:19:29.479Z,11.80
2023-05-15T18:21:57.550Z,9.32
2023-05-15T18:24:25.129Z,8.07
2023-05-15T18:26:52.352Z,11.18
2023-05-15T18:29:19.602Z,9.50
2023-05-15T18:31:46.911Z,8.88
2023-05-15T18:34:14.413Z,8.00
2023-05-15T18:36:41.748Z,9.02
2023-05-15T18:39:09.024Z,9.27
2023-05-15T18:41:36.921Z,11.65
2023-05-15T18:44:04.567Z,9.15
2023-05-15T18:46:31.934Z,8.60
2023-05-15T18:48:59.739Z,9.25
2023-05-15T18:51:27.095Z,8.13
2023-05-15T18:53:55.641Z,9.50
2023-05-15T18:56:22.905Z,8.00
2023-05-15T18:58:50.722Z,10.43
2023-05-15T19:01:17.859Z,13.27
2023-05-15T19:03:45.338Z,9.13
2023-05-15T19:06:13.540Z,9.18
2023-05-15T19:08:41.124Z,9.05
2023-05-15T19:11:08.858Z,12.15
2023-05-15T19:13:36.254Z,8.60
2023-05-15T19:16:04.748Z,8.00
2023-05-15T19:18:32.384Z,8.40
2023-05-15T19:21:00.883Z,8.50
2023-05-15T19:23:28.282Z,7.93
2023-05-15T19:25:55.594Z,7.93
2023-05-15T19:28:22.945Z,8.00
2023-05-15T19:30:51.024Z,7.85
2023-05-15T19:33:18.712Z,7.65
2023-05-15T19:35:45.987Z,8.18
2023-05-15T19:38:13.405Z,8.77
2023-05-15T19:40:45.010Z,7.75
2023-05-15T19:43:14.178Z,9.43
2023-05-15T19:45:42.179Z,7.32
2023-05-15T19:48:10.023Z,7.53
2023-05-15T19:50:40.460Z,6.80
2023-05-15T19:53:08.270Z,7.45
2023-05-15T19:55:36.115Z,8.88
2023-05-15T19:58:05.140Z,7.97
2023-05-15T20:00:32.710Z,7.93
2023-05-15T20:03:01.190Z,8.05
2023-05-15T20:05:28.670Z,7.65
2023-05-15T20:07:56.107Z,8.32
2023-05-15T20:10:23.457Z,8.50
2023-05-15T20:12:50.936Z,8.60
2023-05-15T20:15:18.306Z,8.40
2023-05-15T20:17:45.791Z,8.93
2023-05-15T20:20:13.275Z,7.90
2023-05-15T20:22:43.265Z,8.27
2023-05-15T20:25:11.647Z,9.18
2023-05-15T20:27:38.894Z,8.30
2023-05-15T20:30:07.054Z,8.30
2023-05-15T20:32:34.910Z,11.05
2023-05-15T20:35:02.830Z,12.80
2023-05-15T20:37:30.908Z,9.05
2023-05-15T20:39:58.283Z,7.72
2023-05-15T20:42:27.949Z,15.63
2023-05-15T20:44:55.309Z,8.45
2023-05-15T20:47:23.142Z,15.43
2023-05-15T20:49:50.471Z,11.60
2023-05-15T20:52:17.720Z,8.85
2023-05-15T20:54:45.081Z,8.20
2023-05-15T20:57:12.325Z,8.45
2023-05-15T20:59:39.574Z,10.90
2023-05-15T21:02:07.307Z,7.28
2023-05-15T21:04:36.371Z,8.85
2023-05-15T21:07:04.290Z,7.40
2023-05-15T21:09:31.757Z,7.28
2023-05-15T21:11:59.883Z,8.68
2023-05-15T21:14:27.273Z,10.18
2023-05-15T21:16:54.587Z,8.18
2023-05-15T21:19:22.272Z,12.43
2023-05-15T21:21:49.714Z,19.45
2023-05-15T21:24:17.073Z,15.18
2023-05-15T21:26:44.266Z,9.38
2023-05-15T21:29:11.613Z,8.23
2023-05-15T21:31:39.016Z,14.65
2023-05-15T21:34:06.300Z,11.02
2023-05-15T21:36:34.294Z,9.05
2023-05-15T21:39:01.633Z,9.98
2023-05-15T21:41:29.629Z,9.30
2023-05-15T21:43:56.876Z,9.32
2023-05-15T21:46:24.269Z,6.78
2023-05-15T21:48:51.622Z,8.02
2023-05-15T21:51:18.995Z,6.35
2023-05-15T21:53:46.412Z,8.35
2023-05-15T21:56:13.640Z,7.55
2023-05-15T21:58:40.842Z,8.70
2023-05-15T22:01:08.317Z,9.60
2023-05-15T22:03:35.666Z,11.27
2023-05-15T22:06:03.018Z,13.00
2023-05-15T22:08:30.185Z,10.48
2023-05-15T22:10:57.729Z,11.07
2023-05-15T22:13:25.052Z,9.18
2023-05-15T22:15:52.254Z,7.28
2023-05-15T22:18:19.553Z,18.05
2023-05-15T22:20:48.727Z,13.70
2023-05-15T22:23:16.189Z,17.95
2023-05-15T22:25:43.800Z,10.80
2023-05-15T22:28:11.089Z,10.88
2023-05-15T22:30:38.426Z,11.38
2023-05-15T22:33:06.027Z,15.95
2023-05-15T22:35:33.166Z,8.30
2023-05-15T22:38:00.825Z,6.70
2023-05-15T22:40:28.504Z,5.72
2023-05-15T22:42:56.190Z,6.30
2023-05-15T22:45:23.679Z,7.22
2023-05-15T22:47:51.196Z,9.95
2023-05-15T22:50:18.479Z,8.38
2023-05-15T22:52:45.934Z,7.95
2023-05-15T22:55:13.209Z,9.65
2023-05-15T22:57:40.551Z,9.57
2023-05-15T23:00:09.520Z,10.77
2023-05-15T23:02:37.693Z,9.40
2023-05-15T23:05:05.377Z,8.95
2023-05-15T23:07:34.704Z,14.80
2023-05-15T23:10:02.061Z,22.15
2023-05-15T23:12:31.785Z,10.32
2023-05-15T23:14:59.138Z,11.15
2023-05-15T23:17:26.745Z,26.30
2023-05-15T23:19:54.139Z,14.25
2023-05-15T23:22:21.375Z,11.13
2023-05-15T23:24:48.755Z,7.43
2023-05-15T23:27:16.032Z,8.57
2023-05-15T23:29:43.279Z,6.93
2023-05-15T23:32:10.586Z,10.27
2023-05-15T23:34:37.787Z,13.00
2023-05-15T23:37:05.689Z,11.45
2023-05-15T23:39:32.956Z,12.13
2023-05-15T23:42:02.626Z,10.38
2023-05-15T23:44:33.158Z,9.30
2023-05-15T23:47:00.647Z,11.73
2023-05-15T23:49:28.002Z,8.73
2023-05-15T23:51:55.271Z,10.38
2023-05-15T23:54:22.416Z,6.10
2023-05-15T23:56:49.825Z,14.43
2023-05-15T23:59:17.117Z,7.55
